Time;durP1;ratioP1;P1;durP2;ratioP2;P2;SDS_P1;SDS_P2;PMS_P1;PMS_P2;Temp;Humidity;BMP_temperature;BMP_pressure;BME280_temperature;BME280_humidity;BME280_pressure;Samples;Min_cycle;Max_cycle;Signal;HPM_P1;HPM_P2
2022/08/19 00:02:03;;;;;;;19.63;17.92;;;;;;;18.85;86.25;101261.16;4996222;28;20033;-75
2022/08/19 00:04:32;;;;;;;18.58;16.98;;;;;;;18.90;86.16;101271.19;5017161;28;20026;-74
2022/08/19 00:06:58;;;;;;;19.08;17.48;;;;;;;18.71;86.66;101254.00;5009545;28;20073;-74
2022/08/19 00:09:25;;;;;;;18.67;17.08;;;;;;;18.67;86.59;101257.91;4994104;28;20026;-75
2022/08/19 00:11:52;;;;;;;20.08;18.38;;;;;;;18.67;86.91;101265.78;5004171;28;20049;-75
2022/08/19 00:14:18;;;;;;;20.52;18.83;;;;;;;18.55;87.06;101262.69;5006709;28;20025;-74
2022/08/19 00:16:46;;;;;;;20.77;19.08;;;;;;;18.64;87.10;101276.63;5009955;28;20037;-74
2022/08/19 00:19:12;;;;;;;19.83;18.13;;;;;;;18.67;87.13;101278.91;4997688;28;20021;-75
2022/08/19 00:21:39;;;;;;;19.73;18.02;;;;;;;18.61;86.88;101271.72;5001547;28;20105;-74
2022/08/19 00:24:09;;;;;;;19.77;17.95;;;;;;;18.46;87.32;101275.00;5005448;28;20110;-74
2022/08/19 00:26:35;;;;;;;19.05;17.45;;;;;;;18.34;87.46;101268.44;5008988;28;20026;-74
2022/08/19 00:29:01;;;;;;;18.90;17.40;;;;;;;18.48;87.08;101273.03;5010512;28;20032;-74
2022/08/19 00:31:27;;;;;;;22.05;20.00;;;;;;;18.33;87.90;101274.69;5008318;28;20108;-75
2022/08/19 00:33:53;;;;;;;22.52;20.65;;;;;;;18.31;88.41;101266.97;5002252;28;20029;-75
2022/08/19 00:36:19;;;;;;;23.67;21.80;;;;;;;18.32;88.29;101267.78;4988554;28;20034;-74
2022/08/19 00:38:46;;;;;;;22.10;20.30;;;;;;;18.25;88.38;101272.06;5006825;28;20459;-74
2022/08/19 00:41:17;;;;;;;24.05;21.92;;;;;;;18.22;89.50;101275.00;4989818;28;20375;-74
2022/08/19 00:43:55;;;;;;;22.50;20.70;;;;;;;18.33;88.98;101276.50;5003810;28;20079;-75
2022/08/19 00:46:21;;;;;;;22.70;20.73;;;;;;;18.23;88.79;101280.09;5001415;28;20026;-74
2022/08/19 00:48:46;;;;;;;23.38;21.38;;;;;;;18.14;89.21;101280.28;5012737;28;20364;-74
2022/08/19 00:51:12;;;;;;;23.40;21.48;;;;;;;18.27;88.98;101280.59;5009001;28;20113;-75
2022/08/19 00:53:37;;;;;;;24.23;22.20;;;;;;;18.21;89.12;101281.25;5001553;28;20030;-74
2022/08/19 00:56:05;;;;;;;24.80;22.70;;;;;;;18.29;89.25;101270.75;5010325;28;20026;-75
2022/08/19 00:58:34;;;;;;;24.17;22.10;;;;;;;18.17;89.27;101270.25;5004025;28;20037;-75
2022/08/19 01:01:01;;;;;;;25.05;23.05;;;;;;;18.19;89.34;101267.47;5011635;28;20032;-74
2022/08/19 01:03:27;;;;;;;25.23;23.13;;;;;;;18.30;89.55;101269.78;5006931;28;20045;-75
2022/08/19 01:05:54;;;;;;;25.85;23.75;;;;;;;18.22;89.99;101275.00;5001663;28;20034;-75
2022/08/19 01:08:20;;;;;;;27.00;24.90;;;;;;;18.18;89.41;101271.06;5001539;28;20025;-76
2022/08/19 01:10:53;;;;;;;28.52;26.13;;;;;;;18.11;89.83;101285.84;5000779;28;20489;-74
2022/08/19 01:13:22;;;;;;;27.70;25.50;;;;;;;18.05;90.12;101280.25;4999203;28;20388;-74
2022/08/19 01:15:54;;;;;;;29.05;26.70;;;;;;;18.02;90.43;101277.16;5008973;28;20521;-74
2022/08/19 01:18:21;;;;;;;27.80;25.60;;;;;;;18.12;89.78;101276.97;5008181;28;20057;-75
2022/08/19 01:20:47;;;;;;;27.73;25.42;;;;;;;18.12;90.30;101274.34;5000790;28;20031;-74
2022/08/19 01:23:15;;;;;;;27.85;25.45;;;;;;;18.12;89.61;101282.22;4998478;28;20045;-76
2022/08/19 01:25:44;;;;;;;26.65;24.52;;;;;;;18.03;89.91;101274.34;4989822;28;20133;-75
2022/08/19 01:28:25;;;;;;;27.10;24.90;;;;;;;18.05;90.47;101288.13;4994719;28;20068;-75
2022/08/19 01:30:52;;;;;;;27.35;25.15;;;;;;;17.98;90.02;101292.38;4993730;28;20065;-75
2022/08/19 01:33:19;;;;;;;28.13;25.95;;;;;;;17.96;89.96;101283.88;4997056;28;20022;-74
2022/08/19 01:35:44;;;;;;;30.00;27.63;;;;;;;17.94;90.48;101279.75;4999256;28;20025;-74
2022/08/19 01:38:24;;;;;;;28.42;26.23;;;;;;;17.98;90.70;101281.88;5004217;28;20112;-75
2022/08/19 01:40:49;;;;;;;27.75;25.55;;;;;;;18.00;89.89;101274.66;4999640;28;20395;-75
2022/08/19 01:43:15;;;;;;;26.88;24.67;;;;;;;18.01;89.49;101271.09;4990710;28;20145;-74
2022/08/19 01:45:41;;;;;;;27.00;24.88;;;;;;;17.94;89.57;101274.50;5007518;28;20100;-75
2022/08/19 01:48:08;;;;;;;27.08;24.88;;;;;;;17.79;90.49;101276.94;4985198;28;20152;-75
2022/08/19 01:50:35;;;;;;;25.45;23.38;;;;;;;17.88;90.16;101275.97;5016894;28;20045;-74
2022/08/19 01:53:03;;;;;;;26.40;24.30;;;;;;;17.86;89.81;101275.31;4990116;28;20083;-75
2022/08/19 01:55:29;;;;;;;;;;;;;;;18.15;88.47;101276.66;5007275;28;20495;-75
2022/08/19 01:57:58;;;;;;;27.00;24.80;;;;;;;17.80;90.15;101268.09;4994288;28;20403;-74
2022/08/19 02:00:27;;;;;;;27.05;24.83;;;;;;;17.83;90.37;101267.75;5004512;28;20037;-74
2022/08/19 02:02:53;;;;;;;27.48;25.17;;;;;;;17.82;90.37;101271.38;4988799;28;20037;-74
2022/08/19 02:05:20;;;;;;;27.73;25.42;;;;;;;17.81;90.49;101268.91;5009888;28;20017;-74
2022/08/19 02:07:46;;;;;;;28.10;25.80;;;;;;;17.88;89.95;101273.34;5006095;28;20029;-74
2022/08/19 02:10:15;;;;;;;28.48;26.17;;;;;;;17.84;90.87;101281.72;5018204;28;20030;-74
2022/08/19 02:12:41;;;;;;;27.40;25.23;;;;;;;17.91;90.21;101288.78;5006070;28;20038;-74
2022/08/19 02:15:07;;;;;;;29.50;27.10;;;;;;;17.90;90.46;101284.53;5005345;28;20508;-75
2022/08/19 02:17:33;;;;;;;29.70;27.30;;;;;;;17.76;90.59;101282.50;5006308;28;20042;-74
2022/08/19 02:19:58;;;;;;;31.15;28.45;;;;;;;17.83;90.67;101283.50;5003759;28;20056;-75
2022/08/19 02:22:28;;;;;;;31.75;29.25;;;;;;;17.75;90.81;101278.25;5001369;28;20485;-75
2022/08/19 02:24:54;;;;;;;32.85;30.15;;;;;;;17.79;90.59;101287.44;4993353;28;20022;-74
2022/08/19 02:27:21;;;;;;;33.00;30.25;;;;;;;17.72;91.16;101291.66;4995373;28;20036;-74
2022/08/19 02:29:48;;;;;;;30.95;28.42;;;;;;;17.77;89.90;101294.63;4997186;28;20761;-75
2022/08/19 02:32:14;;;;;;;30.20;27.77;;;;;;;17.64;90.70;101299.50;5005671;28;20029;-74
2022/08/19 02:34:40;;;;;;;29.95;27.55;;;;;;;17.69;90.25;101302.47;5004936;28;20161;-74
2022/08/19 02:38:24;;;;;;;29.02;26.48;;;;;;;17.56;90.74;101286.38;4986017;28;20029;-75
2022/08/19 02:39:52;;;;;;;28.50;26.08;;;;;;;17.51;90.66;101295.53;5012267;28;20045;-74
2022/08/19 02:42:17;;;;;;;27.85;25.65;;;;;;;17.56;90.41;101291.63;5018529;28;20033;-74
2022/08/19 02:44:42;;;;;;;27.25;24.95;;;;;;;17.62;90.52;101299.66;4999351;28;20033;-74
2022/08/19 02:47:09;;;;;;;25.00;22.90;;;;;;;17.61;90.37;101299.84;4987050;28;20014;-74
2022/08/19 02:49:35;;;;;;;21.98;20.05;;;;;;;17.67;89.82;101301.81;5010541;28;20464;-74
2022/08/19 02:52:01;;;;;;;17.48;16.00;;;;;;;17.71;89.32;101305.75;5005557;28;20061;-74
2022/08/19 02:54:27;;;;;;;14.73;13.50;;;;;;;17.42;89.61;101309.59;5012257;28;20030;-74
2022/08/19 02:56:53;;;;;;;14.85;13.50;;;;;;;17.59;89.10;101309.66;5007572;28;20034;-74
2022/08/19 02:59:18;;;;;;;14.25;13.05;;;;;;;17.59;88.22;101296.53;5001267;28;20030;-74
2022/08/19 03:01:45;;;;;;;15.38;14.07;;;;;;;17.60;88.48;101308.66;5000606;28;20030;-76
2022/08/19 03:04:13;;;;;;;16.25;14.85;;;;;;;17.25;89.05;101303.44;5006418;28;20026;-74
2022/08/19 03:06:41;;;;;;;17.38;15.98;;;;;;;17.11;89.88;101308.47;4991749;28;20026;-75
2022/08/19 03:09:07;;;;;;;19.20;17.60;;;;;;;17.26;89.96;101306.88;5010102;28;20440;-74
2022/08/19 03:11:33;;;;;;;20.80;19.08;;;;;;;17.32;89.80;101298.41;4994096;28;20034;-74
2022/08/19 03:14:00;;;;;;;21.35;19.55;;;;;;;17.16;90.45;101300.97;5013630;28;20029;-76
2022/08/19 03:16:28;;;;;;;21.40;19.63;;;;;;;17.20;90.31;101286.53;5010472;28;20041;-75
2022/08/19 03:18:56;;;;;;;20.83;19.15;;;;;;;17.25;89.88;101294.75;4997333;28;20781;-74
2022/08/19 03:21:24;;;;;;;22.17;20.38;;;;;;;17.18;89.84;101301.63;5010727;28;20034;-75
2022/08/19 03:23:50;;;;;;;24.33;22.35;;;;;;;17.09;90.86;101306.00;5007145;28;20045;-74
2022/08/19 03:26:16;;;;;;;23.75;21.85;;;;;;;17.16;91.48;101306.19;5000638;28;20109;-74
2022/08/19 03:28:42;;;;;;;23.08;21.20;;;;;;;17.13;91.21;101296.03;5010934;28;20654;-74
2022/08/19 03:31:12;;;;;;;22.38;20.58;;;;;;;17.23;91.06;101307.22;5010053;28;20362;-75
2022/08/19 03:33:38;;;;;;;22.45;20.52;;;;;;;17.11;91.08;101297.97;5003895;28;20109;-74
2022/08/19 03:36:03;;;;;;;22.77;20.88;;;;;;;17.16;90.92;101300.97;5009003;28;20036;-74
2022/08/19 03:38:29;;;;;;;22.60;20.80;;;;;;;17.10;91.08;101298.97;5017532;28;20026;-74
2022/08/19 03:40:55;;;;;;;22.83;21.00;;;;;;;17.01;91.10;101273.69;4989091;28;20053;-74
2022/08/19 03:43:20;;;;;;;22.65;20.75;;;;;;;17.22;91.01;101287.22;5004777;28;20043;-74
2022/08/19 03:45:48;;;;;;;23.88;21.98;;;;;;;17.25;90.69;101285.09;5008786;28;20416;-74
2022/08/19 03:48:15;;;;;;;23.60;21.70;;;;;;;17.28;90.34;101291.84;4998288;28;20018;-75
2022/08/19 03:50:40;;;;;;;22.80;21.02;;;;;;;17.27;90.22;101297.25;5011282;28;20104;-75
2022/08/19 03:53:08;;;;;;;21.35;19.55;;;;;;;17.31;89.41;101288.88;5009241;28;20447;-74
2022/08/19 03:55:34;;;;;;;22.50;20.70;;;;;;;17.28;89.31;101294.47;5013903;28;20346;-74
2022/08/19 03:57:59;;;;;;;20.38;18.67;;;;;;;17.24;89.27;101287.88;5012343;28;20032;-74
2022/08/19 04:00:24;;;;;;;21.00;19.30;;;;;;;17.09;89.67;101289.44;5012690;28;20033;-74
2022/08/19 04:02:50;;;;;;;21.10;19.40;;;;;;;17.19;89.39;101290.16;5009022;28;20026;-74
2022/08/19 04:05:15;;;;;;;22.02;20.33;;;;;;;17.11;89.87;101290.13;5003265;28;20030;-75
2022/08/19 04:07:41;;;;;;;20.70;19.00;;;;;;;17.18;89.35;101288.50;5004883;28;20641;-74
2022/08/19 04:10:06;;;;;;;19.88;18.27;;;;;;;17.10;88.96;101280.63;5005091;28;20029;-75
2022/08/19 04:12:32;;;;;;;19.92;18.35;;;;;;;17.13;88.42;101290.78;5008926;28;20478;-74
2022/08/19 04:14:58;;;;;;;19.88;18.17;;;;;;;17.13;88.22;101285.53;5002969;28;20022;-74
2022/08/19 04:17:23;;;;;;;19.55;17.95;;;;;;;17.14;87.79;101281.94;5004007;28;20037;-75
2022/08/19 04:19:49;;;;;;;20.48;18.77;;;;;;;17.04;87.76;101282.06;5009844;28;20374;-74
2022/08/19 04:22:14;;;;;;;16.88;15.48;;;;;;;17.07;87.00;101276.50;4998607;28;20021;-74
2022/08/19 04:24:39;;;;;;;15.02;13.82;;;;;;;17.01;86.01;101268.44;5008136;28;20348;-74
2022/08/19 04:27:05;;;;;;;13.88;12.77;;;;;;;16.94;85.76;101276.09;4996127;28;20027;-74
2022/08/19 04:29:32;;;;;;;15.88;14.68;;;;;;;16.84;86.04;101276.22;5008819;28;20438;-75
2022/08/19 04:31:58;;;;;;;14.93;13.73;;;;;;;16.75;86.59;101277.16;5000603;28;20073;-74
2022/08/19 04:34:26;;;;;;;15.30;14.10;;;;;;;16.75;86.28;101282.41;5008158;28;20156;-74
2022/08/19 04:36:56;;;;;;;15.85;14.55;;;;;;;16.76;86.42;101277.97;5006473;28;20099;-75
2022/08/19 04:44:54;;;;;;;18.02;16.52;;;;;;;16.73;85.96;101279.09;4995460;28;20114;-74
2022/08/19 04:47:19;;;;;;;17.40;15.90;;;;;;;16.65;86.38;101271.16;5002192;28;20116;-74
2022/08/19 04:49:45;;;;;;;16.58;15.25;;;;;;;16.64;85.97;101277.38;5006556;28;20735;-74
2022/08/19 04:52:10;;;;;;;14.95;13.65;;;;;;;16.65;85.71;101281.63;4989520;28;20144;-74
2022/08/19 04:54:35;;;;;;;14.10;12.90;;;;;;;16.44;85.56;101280.16;4996641;28;20025;-75
2022/08/19 04:57:01;;;;;;;14.82;13.55;;;;;;;16.51;85.79;101279.56;5001514;28;20057;-74
2022/08/19 04:59:26;;;;;;;14.98;13.75;;;;;;;16.35;86.30;101275.84;4998593;28;20101;-74
2022/08/19 05:01:52;;;;;;;15.55;14.25;;;;;;;16.29;87.00;101271.22;5000982;28;20661;-75
2022/08/19 05:04:19;;;;;;;15.00;13.70;;;;;;;16.37;86.73;101287.00;5011423;28;20112;-74
2022/08/19 05:06:47;;;;;;;16.38;14.98;;;;;;;16.31;87.73;101292.84;5005982;28;20065;-74
2022/08/19 05:09:14;;;;;;;16.47;15.07;;;;;;;16.31;88.33;101287.59;5002099;28;20037;-74
2022/08/19 05:11:40;;;;;;;17.98;16.40;;;;;;;16.34;88.10;101289.91;5003341;28;20036;-74
2022/08/19 05:14:09;;;;;;;17.85;16.35;;;;;;;16.42;87.87;101303.06;5007413;28;20033;-74
2022/08/19 05:16:35;;;;;;;20.08;18.38;;;;;;;16.42;87.96;101292.59;5004697;28;20030;-75
2022/08/19 05:24:29;;;;;;;24.65;22.42;;;;;;;16.35;89.13;101309.91;5010040;28;20546;-74
2022/08/19 05:26:58;;;;;;;28.15;25.65;;;;;;;16.30;90.12;101314.75;4999296;28;20290;-74
2022/08/19 05:29:27;;;;;;;27.48;25.00;;;;;;;16.38;89.39;101316.59;4992845;28;20488;-74
2022/08/19 05:31:53;;;;;;;28.90;26.40;;;;;;;16.39;89.52;101308.59;5011850;28;20033;-74
2022/08/19 05:34:21;;;;;;;32.25;29.13;;;;;;;16.49;89.50;101318.16;5015875;28;20087;-74
2022/08/19 05:36:48;;;;;;;31.67;28.95;;;;;;;16.53;90.09;101320.34;5001186;28;20022;-74
2022/08/19 05:39:18;;;;;;;33.28;30.33;;;;;;;16.61;90.16;101322.19;4988938;28;20030;-74
2022/08/19 05:41:46;;;;;;;34.00;30.90;;;;;;;16.56;90.87;101317.41;5005514;28;20045;-74
2022/08/19 05:44:11;;;;;;;37.57;34.17;;;;;;;16.44;92.20;101316.81;5013930;28;20030;-74
2022/08/19 05:46:38;;;;;;;37.83;34.35;;;;;;;16.51;93.04;101321.44;5006115;28;20026;-74
2022/08/19 05:49:07;;;;;;;38.70;35.20;;;;;;;16.49;93.70;101323.41;4997308;28;20026;-75
2022/08/19 05:51:34;;;;;;;39.25;35.65;;;;;;;16.71;92.33;101330.81;5003666;28;20584;-75
2022/08/19 05:54:00;;;;;;;41.33;37.47;;;;;;;16.65;94.02;101331.41;4998866;28;20457;-74
2022/08/19 05:56:26;;;;;;;42.70;38.63;;;;;;;16.73;93.05;101321.00;5004167;28;20125;-74
2022/08/19 05:58:53;;;;;;;43.83;39.55;;;;;;;16.75;94.81;101339.22;4996740;28;20117;-74
2022/08/19 06:01:20;;;;;;;46.47;42.00;;;;;;;16.73;94.97;101328.84;5005114;28;20038;-74
2022/08/19 06:03:47;;;;;;;48.78;43.83;;;;;;;16.78;95.17;101317.91;5007888;28;20029;-74
2022/08/19 06:06:14;;;;;;;49.80;44.70;;;;;;;16.79;95.91;101323.00;5009928;28;20371;-74
2022/08/19 06:08:40;;;;;;;52.30;46.72;;;;;;;16.92;95.20;101331.31;5010743;28;20072;-74
2022/08/19 06:11:36;;;;;;;51.45;46.15;;;;;;;17.02;94.98;101325.13;4997005;28;20041;-74
2022/08/19 06:14:04;;;;;;;56.45;49.45;;;;;;;16.95;95.10;101323.13;4996654;28;20068;-74
2022/08/19 06:16:31;;;;;;;55.47;49.47;;;;;;;16.95;94.92;101315.25;4999766;28;20363;-74
2022/08/19 06:18:59;;;;;;;57.58;50.03;;;;;;;17.03;94.44;101317.09;5004738;28;20108;-74
2022/08/19 06:21:27;;;;;;;57.80;51.47;;;;;;;17.01;95.19;101319.06;5001019;28;20039;-74
2022/08/19 06:23:54;;;;;;;;;;;;;;;17.24;93.76;101314.09;4991397;28;20081;-74
2022/08/19 06:26:20;;;;;;;55.75;49.72;;;;;;;17.17;94.32;101313.91;4994163;28;20341;-74
2022/08/19 06:28:47;;;;;;;57.08;50.92;;;;;;;17.24;94.28;101309.66;4992572;28;20069;-74
2022/08/19 06:31:17;;;;;;;57.38;51.15;;;;;;;17.29;94.55;101303.97;4996767;28;20023;-74
2022/08/19 06:33:44;;;;;;;57.00;50.97;;;;;;;17.39;94.00;101311.72;4995852;28;20034;-74
2022/08/19 06:36:31;;;;;;;59.85;53.45;;;;;;;17.44;93.92;101314.69;5001821;28;20152;-74
2022/08/19 06:38:58;;;;;;;60.10;53.63;;;;;;;17.50;93.30;101309.63;5010045;28;20038;-75
2022/08/19 06:41:25;;;;;;;60.70;53.10;;;;;;;17.45;94.31;101317.16;5001500;28;20049;-74
2022/08/19 06:43:51;;;;;;;62.65;55.35;;;;;;;17.41;94.06;101315.00;5009234;28;20030;-74
2022/08/19 06:46:18;;;;;;;63.92;56.92;;;;;;;17.46;94.51;101318.78;4993611;28;20022;-75
2022/08/19 06:48:44;;;;;;;65.20;57.38;;;;;;;17.47;94.71;101319.59;5003002;28;20025;-74
2022/08/19 06:51:09;;;;;;;70.43;61.97;;;;;;;17.50;94.79;101314.88;4996339;28;20502;-75
2022/08/19 06:53:35;;;;;;;73.32;61.95;;;;;;;17.63;93.62;101318.84;5016787;28;20033;-74
2022/08/19 06:56:02;;;;;;;77.32;63.67;;;;;;;17.52;94.63;101307.66;5016262;28;20614;-75
2022/08/19 06:58:31;;;;;;;73.68;62.35;;;;;;;17.56;94.33;101312.59;5026776;28;20489;-74
2022/08/19 07:01:02;;;;;;;73.68;62.20;;;;;;;17.73;93.83;101330.06;5008623;28;20466;-75
2022/08/19 07:03:31;;;;;;;74.35;62.72;;;;;;;17.63;94.42;101329.34;5017896;28;20037;-74
2022/08/19 07:05:56;;;;;;;73.72;61.10;;;;;;;17.72;93.84;101331.88;5013391;28;20017;-74
2022/08/19 07:08:22;;;;;;;72.97;59.95;;;;;;;17.71;94.13;101331.97;4994384;28;20034;-75
2022/08/19 07:10:48;;;;;;;70.75;58.33;;;;;;;17.70;94.16;101330.34;5007728;28;20507;-75
2022/08/19 07:13:14;;;;;;;68.05;56.95;;;;;;;17.70;93.88;101330.34;5006197;28;20056;-74
2022/08/19 07:15:40;;;;;;;69.47;56.85;;;;;;;17.66;94.05;101324.63;5007357;28;20029;-75
2022/08/19 07:18:05;;;;;;;70.13;57.08;;;;;;;17.78;93.99;101338.28;5004578;28;20057;-76
2022/08/19 07:20:32;;;;;;;70.93;57.17;;;;;;;17.71;93.65;101342.47;5004275;28;20056;-74
2022/08/19 07:22:58;;;;;;;71.40;58.72;;;;;;;17.74;94.18;101343.03;4991810;28;20029;-75
2022/08/19 07:25:23;;;;;;;70.53;57.33;;;;;;;17.82;93.77;101342.22;5009261;28;20034;-74
2022/08/19 07:27:50;;;;;;;70.15;58.00;;;;;;;17.88;94.27;101344.19;4992213;28;20030;-74
2022/08/19 07:30:16;;;;;;;65.45;56.00;;;;;;;17.94;93.50;101348.81;5000207;28;20022;-76
2022/08/19 07:32:42;;;;;;;64.63;56.60;;;;;;;18.05;93.07;101351.13;4999160;28;20038;-74
2022/08/19 07:35:09;;;;;;;66.35;56.30;;;;;;;18.06;93.05;101351.94;4998865;28;20018;-74
2022/08/19 07:37:36;;;;;;;66.20;57.45;;;;;;;18.12;93.17;101350.47;5000278;28;20076;-76
2022/08/19 07:40:04;;;;;;;69.20;57.80;;;;;;;18.14;93.09;101338.03;4992695;28;20050;-75
2022/08/19 07:42:30;;;;;;;62.30;55.50;;;;;;;18.20;91.99;101337.38;4999903;28;20068;-76
2022/08/19 07:44:55;;;;;;;60.10;53.55;;;;;;;18.35;91.30;101346.25;4999579;28;20394;-75
2022/08/19 07:47:20;;;;;;;62.10;55.20;;;;;;;18.32;92.08;101336.06;4993801;28;20272;-76
2022/08/19 07:49:46;;;;;;;64.00;56.42;;;;;;;18.32;91.86;101346.56;4990438;28;20474;-76
2022/08/19 07:52:12;;;;;;;61.97;55.25;;;;;;;18.44;92.56;101342.63;4995926;28;20142;-75
2022/08/19 07:54:38;;;;;;;65.97;56.55;;;;;;;18.57;91.04;101348.22;4990976;28;20560;-75
2022/08/19 07:57:04;;;;;;;66.28;55.10;;;;;;;18.50;91.57;101355.13;4992163;28;20036;-75
2022/08/19 07:59:30;;;;;;;61.15;54.42;;;;;;;18.66;90.26;101356.09;4994189;28;20280;-74
2022/08/19 08:01:58;;;;;;;60.75;53.40;;;;;;;18.73;90.08;101359.75;4991967;28;20023;-75
2022/08/19 08:09:52;;;;;;;60.72;51.13;;;;;;;18.79;89.32;101380.91;4993653;28;20045;-75
2022/08/19 08:12:28;;;;;;;55.03;47.72;;;;;;;18.80;88.20;101377.31;4995051;28;20026;-76
2022/08/19 08:14:56;;;;;;;59.10;50.20;;;;;;;18.73;89.54;101376.31;4990476;28;20056;-76
2022/08/19 08:17:23;;;;;;;;;;;;;;;18.96;89.20;101381.72;4987866;28;20033;-76
2022/08/19 08:19:50;;;;;;;48.42;43.15;;;;;;;18.85;88.39;101382.06;4983438;28;19917;-75
2022/08/19 08:25:16;;;;;;;52.67;46.17;;;;;;;18.87;89.17;101382.75;5001061;28;20047;-75
2022/08/19 08:27:44;;;;;;;52.13;44.90;;;;;;;18.77;89.06;101389.97;5001053;28;20018;-75
2022/08/19 08:30:14;;;;;;;;;;;;;;;19.03;88.82;101387.94;5001179;28;20092;-75
2022/08/19 08:32:41;;;;;;;48.08;42.88;;;;;;;18.77;88.62;101387.34;5002710;28;19963;-75
2022/08/19 08:35:09;;;;;;;47.05;41.95;;;;;;;18.76;88.91;101401.47;5005857;28;20072;-74
2022/08/19 08:37:35;;;;;;;47.20;42.05;;;;;;;18.77;89.04;101408.38;5010664;28;20026;-75
2022/08/19 08:40:11;;;;;;;40.97;36.15;;;;;;;18.72;89.37;101408.03;5000733;28;20395;-75
2022/08/19 08:42:44;;;;;;;44.03;39.00;;;;;;;18.84;87.82;101411.97;5008822;28;20425;-75
2022/08/19 08:45:16;;;;;;;43.00;38.53;;;;;;;18.78;88.38;101416.06;5017219;28;20044;-75
2022/08/19 08:47:47;;;;;;;43.25;38.58;;;;;;;18.77;88.49;101424.94;5005762;28;20033;-76
2022/08/19 08:50:22;;;;;;;41.63;37.10;;;;;;;18.75;87.96;101415.56;5002202;28;20105;-75
2022/08/19 08:52:52;;;;;;;41.60;37.30;;;;;;;18.74;88.59;101424.44;4996083;28;20470;-75
2022/08/19 08:55:21;;;;;;;43.33;38.33;;;;;;;18.80;88.92;101429.03;5007278;28;20177;-76
2022/08/19 08:57:47;;;;;;;43.28;38.45;;;;;;;18.93;87.83;101429.41;5002379;28;20101;-75
2022/08/19 09:00:21;;;;;;;41.97;37.38;;;;;;;18.88;87.74;101426.44;5001822;28;20105;-75
2022/08/19 09:02:47;;;;;;;44.63;38.35;;;;;;;18.89;87.60;101430.69;5005659;28;20449;-76
2022/08/19 09:05:13;;;;;;;42.90;36.00;;;;;;;18.97;87.18;101425.44;5006514;28;20029;-76
2022/08/19 09:07:47;;;;;;;44.65;39.22;;;;;;;18.95;86.63;101431.84;5018482;28;20492;-75
2022/08/19 09:10:22;;;;;;;43.15;38.47;;;;;;;19.02;87.02;101433.66;5008798;28;20063;-76
2022/08/19 09:12:53;;;;;;;45.67;37.67;;;;;;;19.10;86.53;101425.75;5009598;28;20034;-76
2022/08/19 09:15:28;;;;;;;42.88;37.92;;;;;;;19.10;86.56;101425.75;4997838;28;20038;-75
2022/08/19 09:17:53;;;;;;;46.55;39.42;;;;;;;19.02;86.16;101423.13;4992517;28;20560;-76
2022/08/19 09:20:22;;;;;;;43.30;38.05;;;;;;;19.14;86.02;101414.91;5023965;28;20037;-75
2022/08/19 09:22:49;;;;;;;46.47;38.72;;;;;;;19.25;85.78;101427.69;4994855;28;20450;-76
2022/08/19 09:25:17;;;;;;;42.47;37.90;;;;;;;19.22;85.61;101413.09;5001914;28;20129;-75
2022/08/19 09:27:42;;;;;;;;;;;;;;;19.41;85.99;101425.03;5005882;28;20033;-77
2022/08/19 09:30:12;;;;;;;41.38;37.10;;;;;;;19.26;85.27;101429.34;4981709;28;19940;-75
2022/08/19 09:32:38;;;;;;;40.00;35.75;;;;;;;19.40;85.33;101420.78;5010538;28;20082;-75
2022/08/19 09:35:06;;;;;;;40.33;36.03;;;;;;;19.48;84.77;101426.00;4991933;28;20033;-75
2022/08/19 09:37:31;;;;;;;38.42;34.53;;;;;;;19.62;83.84;101420.09;5004099;28;20060;-75
2022/08/19 09:39:57;;;;;;;37.35;33.55;;;;;;;19.67;83.80;101421.38;4992493;28;20046;-76
2022/08/19 09:42:23;;;;;;;36.55;32.75;;;;;;;19.86;83.08;101419.16;5007559;28;21176;-76
2022/08/19 09:44:48;;;;;;;36.10;32.40;;;;;;;20.00;82.92;101422.88;5010558;28;20026;-75
2022/08/19 09:47:15;;;;;;;34.50;30.80;;;;;;;20.08;81.48;101425.47;4996016;28;20061;-75
2022/08/19 09:49:40;;;;;;;35.40;31.80;;;;;;;20.22;81.67;101423.09;4998485;28;20460;-76
2022/08/19 09:52:08;;;;;;;35.67;31.95;;;;;;;20.27;81.54;101424.22;5013824;28;20470;-77
2022/08/19 09:54:34;;;;;;;36.20;32.40;;;;;;;20.31;81.54;101424.69;5011007;28;20069;-76
2022/08/19 09:57:00;;;;;;;34.08;30.55;;;;;;;20.38;80.44;101430.91;5012710;28;20438;-77
2022/08/19 09:59:26;;;;;;;35.17;31.60;;;;;;;20.35;80.72;101425.97;5000274;28;20478;-76
2022/08/19 10:01:52;;;;;;;38.15;34.17;;;;;;;20.34;81.84;101424.31;5011552;28;20389;-77
2022/08/19 10:04:18;;;;;;;36.72;32.83;;;;;;;20.42;81.03;101432.19;5003158;28;20030;-76
2022/08/19 10:06:43;;;;;;;36.30;32.63;;;;;;;20.53;80.45;101423.91;5003978;28;20505;-75
2022/08/19 10:09:10;;;;;;;37.28;33.55;;;;;;;20.62;81.59;101433.38;5001042;28;20057;-77
2022/08/19 10:11:40;;;;;;;37.60;33.65;;;;;;;20.73;81.58;101429.53;5012298;28;20026;-77
2022/08/19 10:14:06;;;;;;;37.72;33.80;;;;;;;20.58;79.98;101421.56;5006341;28;20144;-76
2022/08/19 10:16:32;;;;;;;36.28;32.35;;;;;;;20.66;80.08;101426.78;5003902;28;20597;-77
2022/08/19 10:18:59;;;;;;;35.72;31.88;;;;;;;20.65;79.61;101422.50;5002975;28;20108;-77
2022/08/19 10:21:27;;;;;;;36.08;32.42;;;;;;;20.68;79.63;101427.41;4989806;28;20132;-75
2022/08/19 10:23:57;;;;;;;37.35;33.42;;;;;;;20.86;80.10;101421.81;4998254;28;20085;-76
2022/08/19 10:26:26;;;;;;;36.92;33.13;;;;;;;20.86;79.92;101423.63;5005587;28;20033;-75
2022/08/19 10:28:52;;;;;;;36.05;32.25;;;;;;;20.96;78.99;101413.66;4997709;28;20072;-76
2022/08/19 10:31:23;;;;;;;36.08;32.42;;;;;;;21.08;77.88;101422.78;4994313;28;20116;-76
2022/08/19 10:33:50;;;;;;;35.05;31.38;;;;;;;21.10;78.41;101419.97;4987488;28;20022;-77
2022/08/19 10:36:20;;;;;;;35.65;32.05;;;;;;;21.17;78.27;101427.00;4996378;28;20037;-76
2022/08/19 10:38:49;;;;;;;36.03;32.33;;;;;;;21.11;77.47;101419.81;5006277;28;20029;-76
2022/08/19 10:41:17;;;;;;;35.25;31.55;;;;;;;21.26;76.94;101419.81;4977487;28;20074;-76
2022/08/19 10:43:44;;;;;;;34.25;30.85;;;;;;;21.29;77.32;101413.34;4997853;28;20045;-75
2022/08/19 10:46:13;;;;;;;35.97;32.38;;;;;;;21.29;75.76;101418.63;4994261;28;20022;-75
2022/08/19 10:48:38;;;;;;;34.78;31.23;;;;;;;21.14;77.37;101422.06;4989331;28;20463;-75
2022/08/19 10:53:49;;;;;;;34.42;31.20;;;;;;;21.19;77.48;101422.34;4993526;28;20061;-75
2022/08/19 10:59:02;;;;;;;34.22;30.85;;;;;;;21.41;78.03;101411.94;4994030;28;20354;-75
2022/08/19 11:01:30;;;;;;;34.88;31.52;;;;;;;21.50;76.71;101410.81;4995589;28;20034;-75
2022/08/19 11:03:57;;;;;;;34.30;31.05;;;;;;;21.54;76.01;101412.09;4988777;28;20032;-75
2022/08/19 11:06:24;;;;;;;45.28;41.08;;;;;;;21.56;74.83;101410.09;5011465;28;20062;-74
2022/08/19 11:08:51;;;;;;;37.72;34.13;;;;;;;21.54;76.09;101401.53;4995616;28;20037;-74
2022/08/19 11:11:17;;;;;;;41.40;37.50;;;;;;;21.72;76.83;101399.34;4993762;28;20034;-74
2022/08/19 11:13:44;;;;;;;276.70;257.55;;;;;;;21.73;75.60;101401.00;5000373;28;20030;-77
2022/08/19 11:16:18;;;;;;;103.35;93.50;;;;;;;21.80;74.49;101401.06;4998745;28;20535;-74
2022/08/19 11:18:50;;;;;;;48.97;44.38;;;;;;;21.79;75.40;101403.88;5004463;28;20037;-75
2022/08/19 11:21:24;;;;;;;50.00;45.30;;;;;;;21.78;74.71;101402.25;4993869;28;20052;-75
2022/08/19 11:23:54;;;;;;;98.30;89.55;;;;;;;21.98;74.60;101413.88;4991688;28;20394;-75
2022/08/19 11:26:22;;;;;;;55.13;50.13;;;;;;;22.02;73.69;101404.56;4999221;28;20037;-77
2022/08/19 11:28:48;;;;;;;58.08;53.45;;;;;;;22.12;74.56;101407.75;4992487;28;20030;-75
2022/08/19 11:31:17;;;;;;;40.17;36.42;;;;;;;22.08;74.38;101397.72;4997559;28;20030;-75
2022/08/19 11:33:43;;;;;;;115.82;104.22;;;;;;;22.19;74.52;101394.59;5002958;28;20029;-75
2022/08/19 11:36:11;;;;;;;46.40;42.60;;;;;;;22.22;73.62;101394.25;4994313;28;20030;-75